Terminal Aerodrome Forecast
Issued by NWS Upton, NY

Home | Current Version | Previous Version | Text Only | Print | Product List | Glossary On
Versions: 1 2 3 4 5 6 7 8 9 10 11 12 13 14 15 16 17 18 19 20 21 22 23 24 25 26 27 28 29 30 31 32
000
FTUS41 KOKX 231534 AAC
TAFEWR
TAF AMD
KEWR 231534Z 2316/2418 20006KT 3SM BR BKN005 BKN025
     FM231800 21007KT P6SM BKN035
     FM240100 20005KT P6SM OVC070
     FM240700 VRB03KT 4SM BR FEW005 OVC020
     FM241100 VRB03KT 2SM BR BKN005
     FM241600 16006KT 5SM BR BKN010=

USA.gov is the U.S. government's official web portal to all federal, state and local government web resources and services.